createdAt,value
2023-12-30T00:32:13.733Z,99.99
2023-12-30T00:33:13.914Z,99.99
2023-12-30T00:34:13.441Z,99.99
2023-12-30T00:35:14.326Z,99.99
2023-12-30T00:36:13.706Z,99.99
2023-12-30T00:37:13.169Z,99.99
2023-12-30T00:38:15.158Z,99.99
2023-12-30T00:39:13.193Z,99.99
2023-12-30T00:40:13.193Z,99.99
2023-12-30T00:41:13.618Z,99.99
2023-12-30T00:42:13.618Z,99.99
2023-12-30T00:43:13.434Z,99.99
2023-12-30T00:44:12.788Z,99.99
2023-12-30T00:45:12.741Z,99.99
2023-12-30T00:46:13.619Z,99.99
2023-12-30T00:47:13.826Z,99.99
2023-12-30T00:48:13.595Z,99.99
2023-12-30T00:49:13.740Z,99.99
2023-12-30T00:50:12.657Z,99.99
2023-12-30T00:51:12.681Z,99.99
2023-12-30T00:52:12.659Z,99.99
2023-12-30T00:53:12.567Z,99.99
2023-12-30T00:54:12.597Z,99.99
2023-12-30T00:55:12.563Z,99.99
2023-12-30T00:56:12.575Z,99.99
2023-12-30T00:57:12.641Z,99.99
2023-12-30T08:19:22.096Z,99.99
2023-12-30T08:20:15.618Z,99.99
2023-12-30T08:22:10.970Z,99.99
2023-12-30T08:23:10.564Z,99.99
2023-12-30T08:26:22.661Z,99.99
2023-12-30T08:27:22.589Z,99.99
2023-12-30T10:07:53.870Z,99.99
2023-12-30T10:08:47.862Z,99.99
2023-12-30T10:21:57.120Z,99.99
2023-12-30T10:22:50.989Z,99.99
2023-12-30T10:23:49.972Z,99.99
2023-12-30T10:24:50.020Z,99.99
2023-12-30T10:25:50.388Z,99.99
2023-12-30T10:26:50.976Z,99.99
2023-12-30T10:27:50.445Z,99.99
2023-12-30T10:28:50.338Z,99.99
2023-12-30T10:29:54.207Z,99.99
2023-12-30T10:30:49.959Z,99.99
2023-12-30T10:31:49.938Z,99.99
2023-12-30T10:32:49.981Z,99.99
2023-12-30T10:33:50.019Z,99.99
2023-12-30T10:34:49.959Z,99.99
2023-12-30T10:35:49.908Z,99.99
2023-12-30T10:36:49.899Z,99.99
2023-12-30T10:37:49.890Z,99.99
2023-12-30T10:38:49.888Z,99.99
2023-12-30T10:39:49.887Z,99.99
2023-12-30T10:40:51.743Z,99.99
2023-12-30T10:41:49.872Z,99.99
2023-12-30T10:42:49.889Z,99.99
2023-12-30T10:43:49.937Z,99.99
2023-12-30T10:44:49.871Z,99.99
2023-12-30T10:45:49.853Z,99.99
2023-12-30T10:46:51.234Z,99.99
2023-12-30T10:47:49.890Z,99.99
2023-12-30T10:48:49.843Z,99.99
2023-12-30T10:49:49.938Z,99.99
2023-12-30T10:50:49.846Z,99.99
2023-12-30T10:51:49.836Z,99.99
2023-12-30T10:52:51.102Z,99.99
2023-12-30T10:53:49.841Z,99.99
2023-12-30T10:54:49.819Z,99.99
2023-12-30T10:55:50.058Z,99.99
2023-12-30T10:56:49.828Z,99.99
2023-12-30T10:57:49.814Z,99.99
2023-12-30T10:58:50.611Z,99.99
2023-12-30T10:59:49.819Z,99.99
2023-12-30T11:00:49.821Z,99.99
2023-12-30T11:01:49.862Z,99.99
2023-12-30T11:02:49.780Z,99.99
2023-12-30T11:03:49.804Z,99.99
2023-12-30T11:04:50.836Z,99.99
2023-12-30T11:05:49.888Z,99.99
2023-12-30T11:06:49.799Z,99.99
2023-12-30T11:07:49.760Z,99.99
2023-12-30T11:08:49.757Z,99.99
2023-12-30T11:09:49.760Z,99.99
2023-12-30T11:10:49.786Z,99.99
2023-12-30T11:11:49.894Z,99.71
2023-12-30T11:12:49.749Z,97.71
2023-12-30T11:13:49.819Z,98.47
2023-12-30T11:14:49.843Z,98.57
2023-12-30T11:15:49.734Z,98.18
2023-12-30T11:16:49.779Z,98.24
2023-12-30T11:17:49.840Z,97.56
2023-12-30T11:18:50.006Z,97.28
2023-12-30T11:19:49.739Z,97.61
2023-12-30T11:20:49.772Z,98.61
2023-12-30T11:21:49.722Z,98.71
2023-12-30T11:22:49.725Z,98.71
2023-12-30T11:23:49.744Z,98.14
2023-12-30T11:24:49.698Z,96.70
2023-12-30T11:25:49.737Z,96.75
2023-12-30T11:26:49.764Z,97.61
2023-12-30T11:27:49.780Z,97.75
2023-12-30T11:28:49.721Z,98.90
2023-12-30T11:29:49.687Z,97.47
2023-12-30T11:30:49.769Z,96.75
2023-12-30T11:31:49.861Z,96.56
2023-12-30T11:32:49.720Z,96.18
2023-12-30T11:33:49.815Z,96.18
2023-12-30T11:34:49.786Z,95.94
2023-12-30T11:35:49.668Z,96.80
2023-12-30T11:36:49.676Z,96.51
2023-12-30T11:37:49.657Z,96.37
2023-12-30T11:38:49.745Z,95.79
2023-12-30T11:39:49.661Z,94.35
2023-12-30T11:40:49.742Z,94.07
2023-12-30T11:41:49.654Z,93.40
2023-12-30T11:42:49.648Z,94.17
2023-12-30T11:43:49.873Z,94.02
2023-12-30T11:44:50.992Z,92.97
2023-12-30T11:45:49.650Z,93.40
2023-12-30T11:46:49.734Z,94.26
2023-12-30T11:47:49.731Z,94.26
2023-12-30T11:48:49.739Z,93.88
2023-12-30T11:49:49.697Z,93.79
2023-12-30T11:50:49.632Z,93.79
2023-12-30T11:51:49.640Z,93.79
2023-12-30T11:52:49.652Z,93.69
2023-12-30T11:53:49.634Z,95.17
2023-12-30T11:54:49.621Z,95.07
2023-12-30T11:55:49.625Z,93.49
2023-12-30T11:56:49.623Z,92.92
2023-12-30T11:57:49.638Z,92.82
2023-12-30T11:58:49.614Z,93.21
2023-12-30T11:59:49.731Z,92.54
2023-12-30T12:00:49.685Z,92.54
2023-12-30T12:01:49.679Z,92.77
2023-12-30T12:02:49.618Z,93.78
2023-12-30T12:03:49.632Z,92.92
2023-12-30T12:04:49.650Z,92.97
2023-12-30T12:05:49.694Z,91.82
2023-12-30T12:06:49.623Z,91.43
2023-12-30T12:07:49.612Z,91.34
2023-12-30T12:08:49.605Z,90.67
2023-12-30T12:09:49.614Z,90.86
2023-12-30T12:10:49.592Z,91.09
2023-12-30T12:11:49.595Z,91.19
2023-12-30T12:12:49.652Z,89.14
2023-12-30T12:13:49.690Z,91.39
2023-12-30T12:14:49.591Z,92.83
2023-12-30T12:15:49.575Z,94.12
2023-12-30T12:16:49.609Z,94.50
2023-12-30T12:17:49.614Z,95.84
2023-12-30T12:18:49.667Z,94.89
2023-12-30T12:19:49.593Z,95.07
2023-12-30T12:20:49.576Z,95.51
2023-12-30T12:21:49.575Z,95.65
2023-12-30T12:22:49.569Z,95.31
2023-12-30T12:23:49.567Z,94.55
2023-12-30T12:24:49.569Z,93.07
2023-12-30T12:25:49.600Z,92.30
2023-12-30T12:26:49.551Z,91.63
2023-12-30T12:27:49.558Z,91.34
2023-12-30T12:28:49.622Z,91.15
2023-12-30T12:29:49.547Z,91.05
2023-12-30T12:30:49.569Z,91.00
2023-12-30T12:31:49.763Z,91.96
2023-12-30T12:32:49.556Z,91.00
2023-12-30T12:33:49.667Z,90.33
2023-12-30T12:34:49.564Z,90.81
2023-12-30T12:35:49.537Z,90.91
2023-12-30T12:36:49.526Z,90.72
2023-12-30T12:37:49.532Z,91.29
2023-12-30T12:38:49.539Z,91.10
2023-12-30T12:39:49.555Z,91.10
2023-12-30T12:40:49.527Z,90.14
2023-12-30T12:41:49.516Z,90.14
2023-12-30T12:42:49.505Z,90.48
2023-12-30T12:43:49.598Z,91.15
2023-12-30T12:44:49.511Z,91.49
2023-12-30T12:45:49.519Z,93.02
2023-12-30T12:46:49.500Z,92.92
2023-12-30T12:47:49.632Z,92.25
2023-12-30T12:48:49.656Z,92.49
2023-12-30T12:49:49.592Z,93.84
2023-12-30T12:50:49.495Z,95.56
2023-12-30T12:51:49.522Z,95.07
2023-12-30T12:52:49.481Z,94.98
2023-12-30T12:53:49.475Z,94.50
2023-12-30T12:54:49.489Z,94.50
2023-12-30T12:55:49.512Z,94.79
2023-12-30T12:56:49.491Z,94.50
2023-12-30T12:58:10.548Z,95.70
2023-12-30T12:58:49.527Z,96.56
2023-12-30T12:59:49.471Z,95.98
2023-12-30T13:00:49.596Z,95.89
2023-12-30T13:01:49.473Z,96.66
2023-12-30T13:02:49.475Z,96.56
2023-12-30T13:03:49.496Z,95.70
2023-12-30T13:04:49.486Z,95.41
2023-12-30T13:05:49.498Z,96.56
2023-12-30T13:06:49.442Z,96.75
2023-12-30T13:07:49.471Z,96.94
2023-12-30T13:08:49.429Z,97.04
2023-12-30T13:09:49.436Z,97.47
2023-12-30T13:10:49.793Z,97.56
2023-12-30T13:11:49.425Z,97.47
2023-12-30T13:12:49.413Z,97.85
2023-12-30T13:13:49.437Z,97.80
2023-12-30T13:14:49.408Z,98.66
2023-12-30T13:15:49.401Z,98.52
2023-12-30T13:16:49.391Z,97.28
2023-12-30T13:17:49.573Z,96.61
2023-12-30T13:18:49.445Z,97.08
2023-12-30T13:19:49.512Z,96.89
2023-12-30T13:20:49.369Z,97.66
2023-12-30T13:21:49.395Z,97.75
2023-12-30T13:22:49.382Z,97.66
2023-12-30T13:23:49.361Z,97.75
2023-12-30T13:24:49.360Z,98.04
2023-12-30T13:25:49.771Z,98.04
2023-12-30T13:26:49.584Z,97.66
2023-12-30T13:27:49.344Z,97.37
2023-12-30T13:28:49.441Z,97.66
2023-12-30T13:29:49.377Z,98.13
2023-12-30T13:30:49.383Z,98.42
2023-12-30T13:31:49.452Z,97.66
2023-12-30T13:32:49.416Z,97.66
2023-12-30T13:33:49.409Z,97.66
2023-12-30T13:34:49.389Z,98.13
2023-12-30T13:35:49.396Z,97.56
2023-12-30T13:36:49.315Z,98.04
2023-12-30T13:37:49.366Z,98.04
2023-12-30T13:38:49.312Z,98.71
2023-12-30T13:39:49.286Z,97.66
2023-12-30T13:40:49.440Z,98.61
2023-12-30T13:41:49.272Z,98.61
2023-12-30T13:42:49.274Z,98.71
2023-12-30T13:43:49.328Z,99.09
2023-12-30T13:44:49.333Z,99.48
2023-12-30T13:45:49.252Z,98.80
2023-12-30T13:46:49.265Z,99.43
2023-12-30T13:47:49.385Z,98.94
2023-12-30T13:48:49.235Z,99.28
2023-12-30T13:49:49.246Z,99.43
2023-12-30T13:50:50.600Z,99.23
2023-12-30T13:51:49.256Z,99.52
2023-12-30T13:52:49.273Z,99.62
2023-12-30T13:53:49.236Z,99.99
2023-12-30T13:54:49.326Z,99.99
2023-12-30T13:55:49.250Z,99.99
2023-12-30T13:56:49.211Z,99.99
2023-12-30T13:57:49.190Z,99.99
2023-12-30T13:58:49.192Z,99.99
2023-12-30T13:59:49.208Z,99.99
2023-12-30T14:00:49.266Z,99.99
2023-12-30T14:01:49.204Z,99.99
2023-12-30T14:02:52.136Z,99.99
2023-12-30T14:03:49.249Z,99.99
2023-12-30T14:04:49.442Z,99.99
2023-12-30T14:05:49.342Z,99.99
2023-12-30T14:06:49.136Z,99.99
2023-12-30T14:07:49.316Z,99.99
2023-12-30T14:08:49.128Z,99.99
2023-12-30T14:10:10.159Z,99.99
2023-12-30T14:10:49.409Z,99.99
2023-12-30T14:11:49.135Z,99.99
2023-12-30T14:12:49.096Z,99.76
2023-12-30T14:13:49.275Z,99.99
2023-12-30T14:14:49.126Z,99.99
2023-12-30T14:15:49.368Z,99.99
2023-12-30T14:16:49.102Z,99.99
2023-12-30T14:17:49.309Z,99.99
2023-12-30T14:18:49.153Z,99.99
2023-12-30T14:19:49.092Z,99.99
2023-12-30T14:20:49.221Z,99.99
2023-12-30T14:21:49.125Z,99.99
2023-12-30T14:22:49.136Z,99.99
2023-12-30T14:23:49.137Z,99.99
2023-12-30T15:30:41.089Z,99.99
